createdAt,value
2018-02-14T00:01:53.367Z,9.13
2018-02-14T00:04:20.924Z,9.14
2018-02-14T00:06:48.722Z,9.18
2018-02-14T00:09:16.493Z,9.13
2018-02-14T00:11:44.101Z,9.16
2018-02-14T00:14:12.086Z,9.16
2018-02-14T00:16:39.885Z,9.16
2018-02-14T00:19:08.772Z,9.19
2018-02-14T00:21:36.407Z,9.19
2018-02-14T00:24:04.019Z,9.20
2018-02-14T00:26:31.716Z,9.14
2018-02-14T00:28:59.558Z,9.22
2018-02-14T00:31:27.164Z,9.20
2018-02-14T00:33:55.042Z,9.25
2018-02-14T00:36:22.946Z,9.23
2018-02-14T00:38:50.584Z,9.25
2018-02-14T00:41:18.362Z,9.27
2018-02-14T00:43:46.131Z,9.27
2018-02-14T00:46:13.777Z,9.30
2018-02-14T00:48:41.534Z,9.27
2018-02-14T00:51:09.574Z,9.27
2018-02-14T00:53:37.412Z,9.26
2018-02-14T00:56:05.207Z,9.28
2018-02-14T00:58:32.783Z,9.31
2018-02-14T01:01:00.533Z,9.31
2018-02-14T01:03:28.143Z,9.28
2018-02-14T01:05:55.969Z,9.25
2018-02-14T01:08:23.747Z,9.26
2018-02-14T01:10:51.344Z,9.29
2018-02-14T01:13:18.977Z,9.25
2018-02-14T01:15:46.690Z,9.27
2018-02-14T01:18:14.308Z,9.26
2018-02-14T01:20:44.096Z,9.28
2018-02-14T01:23:11.714Z,9.26
2018-02-14T01:25:40.488Z,9.28
2018-02-14T01:28:08.480Z,9.26
2018-02-14T01:30:36.071Z,9.28
2018-02-14T01:33:04.185Z,9.31
2018-02-14T01:35:33.150Z,9.30
2018-02-14T01:38:00.939Z,9.30
2018-02-14T01:40:29.445Z,9.30
2018-02-14T01:42:57.065Z,9.33
2018-02-14T01:45:24.828Z,9.36
2018-02-14T01:47:52.409Z,9.33
2018-02-14T01:50:20.024Z,9.32
2018-02-14T01:52:47.605Z,9.36
2018-02-14T01:55:15.150Z,9.33
2018-02-14T01:57:42.802Z,9.31
2018-02-14T02:00:10.594Z,9.27
2018-02-14T02:02:38.342Z,9.31
2018-02-14T02:05:06.230Z,9.31
2018-02-14T02:07:33.839Z,9.31
2018-02-14T02:10:01.493Z,9.29
2018-02-14T02:12:29.105Z,9.28
2018-02-14T02:14:56.720Z,9.28
2018-02-14T02:17:24.295Z,9.29
2018-02-14T02:19:51.962Z,9.30
2018-02-14T02:22:19.715Z,9.25
2018-02-14T02:24:47.303Z,9.24
2018-02-14T02:27:15.290Z,9.24
2018-02-14T02:29:42.911Z,9.26
2018-02-14T02:32:10.525Z,9.28
2018-02-14T02:34:38.349Z,9.25
2018-02-14T02:37:05.878Z,9.28
2018-02-14T02:39:45.892Z,9.28
2018-02-14T02:42:13.669Z,9.29
2018-02-14T02:44:41.486Z,9.25
2018-02-14T02:47:09.082Z,9.28
2018-02-14T02:49:36.681Z,9.30
2018-02-14T02:52:04.441Z,9.30
2018-02-14T02:54:32.330Z,9.30
2018-02-14T02:56:59.951Z,9.29
2018-02-14T02:59:27.733Z,9.28
2018-02-14T03:01:55.336Z,9.28
2018-02-14T03:04:23.204Z,9.29
2018-02-14T03:06:50.811Z,9.27
2018-02-14T03:09:18.407Z,9.29
2018-02-14T03:11:46.153Z,9.28
2018-02-14T03:14:13.897Z,9.31
2018-02-14T03:16:41.759Z,9.32
2018-02-14T03:19:09.379Z,9.31
2018-02-14T03:21:37.160Z,9.29
2018-02-14T03:24:04.715Z,9.34
2018-02-14T03:26:32.529Z,9.34
2018-02-14T03:29:00.143Z,9.32
2018-02-14T03:31:27.768Z,9.08
2018-02-14T03:33:55.369Z,9.35
2018-02-14T03:36:23.115Z,9.32
2018-02-14T03:38:50.680Z,9.32
2018-02-14T03:41:18.453Z,9.28
2018-02-14T03:43:46.214Z,9.29
2018-02-14T03:46:13.883Z,9.31
2018-02-14T03:48:41.621Z,9.27
2018-02-14T03:51:09.413Z,9.28
2018-02-14T03:53:37.171Z,9.28
2018-02-14T03:56:04.751Z,9.28
2018-02-14T03:58:32.535Z,9.31
2018-02-14T04:01:00.299Z,9.32
2018-02-14T04:03:28.126Z,9.32
2018-02-14T04:05:55.681Z,9.28
2018-02-14T04:08:23.235Z,9.18
2018-02-14T04:10:50.835Z,9.04
2018-02-14T04:13:18.456Z,9.29
2018-02-14T04:15:46.046Z,9.31
2018-02-14T04:18:13.835Z,9.31
2018-02-14T04:20:41.585Z,9.34
2018-02-14T04:23:09.208Z,9.34
2018-02-14T04:25:36.974Z,9.35
2018-02-14T04:31:04.427Z,9.34
2018-02-14T04:33:32.237Z,9.34
2018-02-14T04:35:59.829Z,9.29
2018-02-14T04:38:27.395Z,9.27
2018-02-14T04:40:55.556Z,9.28
2018-02-14T04:43:23.532Z,9.26
2018-02-14T04:45:51.083Z,9.30
2018-02-14T04:48:18.858Z,9.27
2018-02-14T04:50:46.454Z,9.26
2018-02-14T04:53:14.046Z,9.28
2018-02-14T04:55:41.868Z,9.24
2018-02-14T04:58:09.438Z,9.26
2018-02-14T05:00:37.059Z,9.26
2018-02-14T05:03:04.673Z,9.30
2018-02-14T05:05:32.515Z,9.31
2018-02-14T05:08:00.079Z,9.32
2018-02-14T05:10:27.848Z,9.34
2018-02-14T05:12:55.464Z,9.34
2018-02-14T05:15:23.297Z,9.32
2018-02-14T05:17:50.886Z,9.34
2018-02-14T05:20:18.476Z,9.32
2018-02-14T05:22:46.128Z,9.34
2018-02-14T05:25:13.673Z,9.74
2018-02-14T05:27:41.221Z,10.04
2018-02-14T05:30:08.837Z,10.54
2018-02-14T05:32:36.955Z,10.87
2018-02-14T05:35:04.515Z,10.73
2018-02-14T05:37:32.062Z,10.91
2018-02-14T05:39:59.748Z,10.57
2018-02-14T05:42:27.302Z,10.63
2018-02-14T05:44:55.184Z,10.53
2018-02-14T05:47:22.725Z,10.47
2018-02-14T05:49:50.498Z,10.36
2018-02-14T05:52:18.017Z,10.23
2018-02-14T05:54:45.865Z,10.10
2018-02-14T05:57:13.461Z,10.02
2018-02-14T05:59:41.054Z,9.95
2018-02-14T06:02:08.640Z,9.88
2018-02-14T06:04:36.169Z,9.81
2018-02-14T06:07:03.865Z,9.62
2018-02-14T06:09:31.648Z,9.52
2018-02-14T06:11:59.195Z,9.49
2018-02-14T06:14:26.749Z,9.42
2018-02-14T06:16:54.271Z,9.43
2018-02-14T06:19:21.821Z,9.43
2018-02-14T06:21:49.346Z,9.36
2018-02-14T06:24:16.876Z,9.20
2018-02-14T06:26:44.561Z,9.10
2018-02-14T06:29:12.078Z,9.13
2018-02-14T06:31:39.630Z,9.08
2018-02-14T06:34:07.173Z,9.05
2018-02-14T06:36:34.716Z,8.90
2018-02-14T06:39:02.229Z,8.81
2018-02-14T06:41:30.175Z,8.74
2018-02-14T06:43:57.999Z,8.69
2018-02-14T06:46:25.513Z,8.57
2018-02-14T06:48:53.029Z,8.49
2018-02-14T06:51:20.592Z,8.38
2018-02-14T06:53:48.131Z,8.34
2018-02-14T06:56:15.711Z,8.32
2018-02-14T06:58:43.234Z,8.26
2018-02-14T07:01:10.909Z,8.02
2018-02-14T07:03:38.693Z,8.23
2018-02-14T07:06:06.252Z,8.16
2018-02-14T07:08:33.762Z,8.09
2018-02-14T07:11:01.500Z,8.11
2018-02-14T07:13:29.363Z,8.11
2018-02-14T07:15:57.146Z,8.06
2018-02-14T07:18:24.806Z,8.05
2018-02-14T07:20:52.342Z,8.05
2018-02-14T07:23:25.475Z,8.02
2018-02-14T07:25:53.056Z,8.00
2018-02-14T07:28:20.970Z,8.01
2018-02-14T07:30:48.897Z,7.99
2018-02-14T07:33:16.416Z,7.99
2018-02-14T07:35:43.947Z,8.04
2018-02-14T07:38:11.497Z,8.03
2018-02-14T07:40:39.140Z,8.00
2018-02-14T07:43:06.793Z,8.14
2018-02-14T07:45:34.357Z,8.06
2018-02-14T07:48:01.899Z,8.11
2018-02-14T07:50:29.452Z,8.07
2018-02-14T07:52:56.978Z,8.11
2018-02-14T07:55:24.515Z,8.16
2018-02-14T07:57:52.056Z,8.10
2018-02-14T08:00:19.969Z,8.25
2018-02-14T08:02:47.481Z,8.37
2018-02-14T08:05:15.871Z,8.46
2018-02-14T08:07:43.419Z,8.50
2018-02-14T08:10:10.971Z,8.58
2018-02-14T08:12:38.533Z,8.67
2018-02-14T08:15:06.067Z,8.79
2018-02-14T08:17:33.628Z,8.87
2018-02-14T08:20:01.173Z,8.96
2018-02-14T08:22:28.734Z,8.87
2018-02-14T08:24:56.270Z,8.90
2018-02-14T08:27:24.134Z,8.88
2018-02-14T08:29:51.815Z,8.92
2018-02-14T08:32:19.672Z,8.98
2018-02-14T08:34:47.242Z,9.04
2018-02-14T08:37:14.762Z,9.08
2018-02-14T08:39:42.345Z,9.07
2018-02-14T08:42:09.890Z,9.03
2018-02-14T08:44:37.435Z,8.97
2018-02-14T08:47:04.970Z,9.06
2018-02-14T08:49:32.788Z,9.09
2018-02-14T08:52:00.302Z,9.19
2018-02-14T08:54:27.961Z,9.33
2018-02-14T08:56:55.526Z,9.49
2018-02-14T08:59:23.056Z,9.63
2018-02-14T09:01:50.608Z,9.78
2018-02-14T09:04:18.151Z,9.76
2018-02-14T09:06:45.912Z,9.67
2018-02-14T09:09:13.467Z,9.68
2018-02-14T09:11:41.018Z,9.67
2018-02-14T09:14:08.537Z,9.66
2018-02-14T09:16:36.088Z,9.70
2018-02-14T09:19:03.675Z,9.71
2018-02-14T09:21:31.254Z,9.76
2018-02-14T09:23:58.847Z,9.81
2018-02-14T09:26:26.379Z,9.96
2018-02-14T09:28:53.912Z,9.92
2018-02-14T09:31:21.487Z,9.89
2018-02-14T09:33:49.345Z,9.83
2018-02-14T09:36:17.331Z,9.80
2018-02-14T09:38:44.940Z,9.82
2018-02-14T09:41:12.507Z,9.80
2018-02-14T09:43:40.042Z,9.68
2018-02-14T09:46:07.593Z,9.85
2018-02-14T09:48:35.164Z,9.93
2018-02-14T09:51:02.725Z,9.91
2018-02-14T09:53:30.263Z,9.98
2018-02-14T09:55:57.938Z,10.03
2018-02-14T09:58:25.462Z,9.97
2018-02-14T10:00:53.516Z,9.84
2018-02-14T10:03:21.265Z,9.81
2018-02-14T10:05:49.075Z,9.81
2018-02-14T10:08:16.825Z,9.67
2018-02-14T10:10:44.781Z,9.70
2018-02-14T10:13:12.371Z,9.65
2018-02-14T10:15:40.161Z,9.69
2018-02-14T10:18:07.913Z,9.83
2018-02-14T10:20:35.451Z,10.02
2018-02-14T10:23:03.222Z,10.21
2018-02-14T10:25:30.954Z,10.31
2018-02-14T10:27:58.498Z,10.19
2018-02-14T10:30:26.051Z,10.29
2018-02-14T10:32:54.697Z,10.58
2018-02-14T10:35:22.246Z,10.97
2018-02-14T10:37:50.035Z,11.33
2018-02-14T10:40:17.554Z,11.85
2018-02-14T10:42:45.103Z,12.44
2018-02-14T10:45:12.673Z,12.88
2018-02-14T10:47:40.212Z,13.05
2018-02-14T10:50:07.737Z,13.11
2018-02-14T10:52:35.281Z,13.02
2018-02-14T10:55:02.801Z,13.06
2018-02-14T10:57:30.320Z,12.83
2018-02-14T10:59:57.979Z,12.98
2018-02-14T11:02:25.562Z,12.86
2018-02-14T11:04:58.682Z,12.75
2018-02-14T11:07:26.286Z,12.77
2018-02-14T11:09:53.809Z,12.68
2018-02-14T11:12:21.600Z,12.58
2018-02-14T11:14:49.166Z,12.40
2018-02-14T11:17:16.740Z,12.24
2018-02-14T11:19:44.276Z,12.03
2018-02-14T11:22:11.820Z,12.01
2018-02-14T11:24:39.363Z,11.92
2018-02-14T11:27:06.886Z,11.88
2018-02-14T11:29:34.470Z,11.87
2018-02-14T11:32:02.038Z,11.96
2018-02-14T11:34:29.552Z,11.94
2018-02-14T11:36:57.234Z,12.10
2018-02-14T11:39:24.793Z,12.42
2018-02-14T11:41:52.371Z,12.76
2018-02-14T11:44:19.957Z,12.87
2018-02-14T11:46:47.528Z,12.74
2018-02-14T11:49:15.086Z,12.79
2018-02-14T11:51:42.676Z,12.79
2018-02-14T11:54:10.226Z,12.82
2018-02-14T11:56:37.785Z,12.82
2018-02-14T11:59:05.525Z,12.96
2018-02-14T12:01:33.119Z,13.28
2018-02-14T12:04:00.658Z,13.62
2018-02-14T12:06:28.406Z,13.73
2018-02-14T12:08:55.980Z,13.70
2018-02-14T12:11:23.549Z,13.67
2018-02-14T12:13:51.076Z,13.66
2018-02-14T12:16:18.671Z,13.67
2018-02-14T12:18:46.324Z,13.63
2018-02-14T12:21:13.845Z,13.44
2018-02-14T12:23:41.422Z,13.37
2018-02-14T12:26:08.945Z,13.36
2018-02-14T12:28:36.483Z,13.39
2018-02-14T12:31:04.070Z,13.40
2018-02-14T12:33:31.628Z,13.36
2018-02-14T12:35:59.141Z,13.30
2018-02-14T12:38:26.699Z,13.24
2018-02-14T12:40:54.231Z,13.18
2018-02-14T12:43:21.742Z,13.07
2018-02-14T12:45:49.308Z,12.90
2018-02-14T12:48:16.850Z,12.84
2018-02-14T12:50:44.411Z,12.89
2018-02-14T12:53:12.181Z,12.91
2018-02-14T12:55:39.718Z,12.90
2018-02-14T12:58:07.262Z,12.86
2018-02-14T13:00:34.806Z,12.78
2018-02-14T13:03:02.345Z,12.73
2018-02-14T13:05:29.861Z,12.58
2018-02-14T13:07:57.425Z,12.34
2018-02-14T13:10:24.947Z,12.06
2018-02-14T13:12:52.509Z,11.84
2018-02-14T13:15:20.115Z,11.65
2018-02-14T13:17:48.635Z,11.45
2018-02-14T13:20:16.163Z,11.29
2018-02-14T13:22:43.767Z,11.21
2018-02-14T13:25:11.633Z,11.14
2018-02-14T13:27:40.710Z,10.98
2018-02-14T13:30:08.654Z,10.77
2018-02-14T13:32:36.941Z,10.58
2018-02-14T13:35:05.054Z,10.44
2018-02-14T13:37:32.800Z,10.35
2018-02-14T13:40:00.332Z,10.20
2018-02-14T13:42:28.449Z,10.20
2018-02-14T13:44:56.164Z,10.28
2018-02-14T13:47:23.718Z,10.37
2018-02-14T13:49:52.169Z,10.38
2018-02-14T13:52:24.536Z,10.51
2018-02-14T13:54:53.212Z,10.54
2018-02-14T13:57:20.849Z,10.54
2018-02-14T13:59:48.381Z,10.70
2018-02-14T14:02:15.961Z,10.78
2018-02-14T14:04:43.489Z,10.83
2018-02-14T14:07:11.098Z,10.86
2018-02-14T14:09:38.660Z,10.87
2018-02-14T14:12:06.186Z,10.86
2018-02-14T14:14:33.724Z,10.75
2018-02-14T14:17:01.400Z,10.70
2018-02-14T14:19:28.942Z,10.64
2018-02-14T14:21:56.460Z,10.53
2018-02-14T14:24:23.979Z,10.48
2018-02-14T14:26:51.907Z,10.49
2018-02-14T14:29:19.496Z,10.39
2018-02-14T14:31:47.032Z,10.35
2018-02-14T14:34:14.590Z,10.23
2018-02-14T14:36:42.157Z,10.10
2018-02-14T14:39:09.716Z,10.01
2018-02-14T14:41:37.244Z,10.03
2018-02-14T14:44:05.030Z,10.09
2018-02-14T14:46:32.559Z,10.08
2018-02-14T14:49:00.102Z,9.89
2018-02-14T14:51:27.669Z,9.81
2018-02-14T14:53:55.306Z,9.76
2018-02-14T14:56:22.855Z,9.65
2018-02-14T14:58:50.393Z,9.54
2018-02-14T15:01:17.967Z,9.42
2018-02-14T15:03:45.798Z,9.37
2018-02-14T15:06:13.337Z,9.28
2018-02-14T15:08:40.871Z,9.22
2018-02-14T15:11:08.400Z,9.08
2018-02-14T15:13:35.930Z,8.91
2018-02-14T15:16:03.445Z,8.83
2018-02-14T15:18:30.979Z,8.88
2018-02-14T15:20:58.512Z,8.88
2018-02-14T15:23:26.195Z,8.79
2018-02-14T15:25:53.705Z,8.53
2018-02-14T15:28:22.061Z,8.44
2018-02-14T15:30:49.654Z,8.27
2018-02-14T15:33:17.205Z,8.24
2018-02-14T15:35:44.730Z,8.27
2018-02-14T15:38:12.312Z,8.21
2018-02-14T15:40:40.087Z,8.01
2018-02-14T15:43:07.625Z,7.93
2018-02-14T15:45:35.964Z,7.76
2018-02-14T15:48:03.660Z,7.69
2018-02-14T15:50:31.348Z,7.68
2018-02-14T15:52:59.179Z,7.52
2018-02-14T15:55:26.781Z,7.49
2018-02-14T15:57:54.458Z,7.36
2018-02-14T16:00:22.017Z,7.37
2018-02-14T16:02:49.547Z,7.19
2018-02-14T16:05:17.131Z,7.09
2018-02-14T16:07:44.685Z,7.14
2018-02-14T16:10:13.013Z,6.96
2018-02-14T16:12:41.391Z,6.95
2018-02-14T16:15:08.999Z,6.96
2018-02-14T16:17:36.576Z,6.84
2018-02-14T16:20:04.122Z,6.76
2018-02-14T16:22:31.684Z,6.76
2018-02-14T16:24:59.265Z,6.73
2018-02-14T16:27:26.931Z,6.65
2018-02-14T16:29:54.458Z,6.59
2018-02-14T16:32:22.011Z,6.50
2018-02-14T16:34:49.543Z,6.52
2018-02-14T16:37:17.106Z,6.45
2018-02-14T16:39:44.650Z,6.45
2018-02-14T16:42:12.188Z,6.54
2018-02-14T16:44:40.153Z,6.32
2018-02-14T16:47:07.958Z,6.54
2018-02-14T16:49:35.732Z,6.49
2018-02-14T16:52:03.343Z,6.40
2018-02-14T16:54:30.871Z,6.33
2018-02-14T16:56:58.472Z,6.28
2018-02-14T16:59:26.046Z,6.21
2018-02-14T17:01:53.927Z,6.20
2018-02-14T17:04:21.487Z,6.03
2018-02-14T17:06:49.285Z,6.13
2018-02-14T17:09:16.840Z,6.03
2018-02-14T17:11:44.463Z,5.98
2018-02-14T17:14:12.039Z,5.96
2018-02-14T17:16:39.596Z,5.89
2018-02-14T17:19:07.425Z,5.85
2018-02-14T17:21:34.957Z,5.81
2018-02-14T17:24:02.559Z,5.87
2018-02-14T17:26:30.437Z,5.75
2018-02-14T17:28:58.178Z,5.77
2018-02-14T17:31:26.145Z,5.62
2018-02-14T17:33:53.726Z,5.66
2018-02-14T17:36:22.205Z,5.58
2018-02-14T17:38:49.948Z,5.67
2018-02-14T17:41:17.502Z,5.52
2018-02-14T17:43:46.288Z,5.56
2018-02-14T17:46:16.035Z,5.51
2018-02-14T17:48:44.962Z,5.65
2018-02-14T17:51:13.191Z,5.78
2018-02-14T17:53:40.949Z,5.81
2018-02-14T17:56:08.597Z,5.85
2018-02-14T17:58:36.207Z,5.89
2018-02-14T18:01:04.852Z,5.91
2018-02-14T18:03:32.691Z,5.91
2018-02-14T18:06:00.443Z,5.91
2018-02-14T18:08:28.668Z,5.83
2018-02-14T18:10:56.709Z,5.96
2018-02-14T18:13:24.709Z,5.96
2018-02-14T18:15:52.618Z,5.98
2018-02-14T18:18:21.217Z,5.98
2018-02-14T18:20:49.905Z,5.99
2018-02-14T18:23:21.336Z,5.95
2018-02-14T18:25:49.161Z,6.03
2018-02-14T18:28:16.807Z,6.03
2018-02-14T18:30:44.362Z,6.05
2018-02-14T18:33:12.107Z,5.85
2018-02-14T18:35:40.034Z,6.08
2018-02-14T18:38:07.676Z,6.03
2018-02-14T18:40:36.010Z,6.11
2018-02-14T18:43:03.742Z,6.14
2018-02-14T18:45:32.695Z,6.14
2018-02-14T18:48:00.902Z,6.16
2018-02-14T18:50:29.002Z,6.15
2018-02-14T18:52:57.054Z,6.16
2018-02-14T18:55:24.860Z,6.18
2018-02-14T18:57:52.626Z,6.19
2018-02-14T19:00:20.282Z,6.34
2018-02-14T19:02:47.966Z,6.59
2018-02-14T19:05:16.224Z,6.69
2018-02-14T19:07:44.254Z,6.72
2018-02-14T19:10:12.476Z,6.63
2018-02-14T19:12:40.490Z,6.55
2018-02-14T19:15:08.703Z,6.52
2018-02-14T19:17:36.568Z,6.46
2018-02-14T19:20:04.402Z,6.45
2018-02-14T19:22:32.490Z,6.45
2018-02-14T19:25:01.845Z,6.42
2018-02-14T19:27:29.848Z,6.42
2018-02-14T19:29:57.594Z,6.41
2018-02-14T19:32:25.253Z,6.39
2018-02-14T19:34:52.896Z,6.33
2018-02-14T19:37:20.779Z,6.38
2018-02-14T19:39:48.550Z,6.37
2018-02-14T19:42:16.889Z,6.35
2018-02-14T19:44:44.759Z,6.38
2018-02-14T19:47:12.453Z,6.37
2018-02-14T19:49:40.423Z,6.38
2018-02-14T19:52:09.732Z,6.33
2018-02-14T19:54:37.963Z,6.35
2018-02-14T19:57:07.509Z,6.31
2018-02-14T19:59:36.544Z,6.30
2018-02-14T20:02:05.644Z,6.29
2018-02-14T20:04:34.460Z,6.03
2018-02-14T20:07:02.358Z,6.30
2018-02-14T20:09:30.477Z,6.28
2018-02-14T20:11:59.220Z,6.27
2018-02-14T20:14:27.487Z,6.29
2018-02-14T20:16:55.255Z,6.27
2018-02-14T20:19:24.267Z,6.27
2018-02-14T20:21:53.480Z,6.21
2018-02-14T20:24:21.940Z,6.26
2018-02-14T20:26:51.091Z,6.29
2018-02-14T20:29:19.156Z,6.26
2018-02-14T20:31:47.639Z,6.28
2018-02-14T20:34:15.680Z,6.29
2018-02-14T20:36:43.346Z,6.27
2018-02-14T20:39:10.913Z,6.29
2018-02-14T20:41:41.341Z,6.28
2018-02-14T20:44:10.025Z,6.29
2018-02-14T20:46:38.176Z,6.30
2018-02-14T20:49:06.004Z,6.28
2018-02-14T20:51:33.896Z,6.27
2018-02-14T20:54:01.478Z,6.28
2018-02-14T20:56:29.941Z,6.21
2018-02-14T20:58:58.288Z,6.22
2018-02-14T21:01:25.896Z,6.21
2018-02-14T21:03:53.727Z,6.21
2018-02-14T21:06:21.492Z,6.11
2018-02-14T21:08:49.037Z,6.16
2018-02-14T21:11:16.577Z,6.14
2018-02-14T21:13:44.676Z,6.11
2018-02-14T21:16:12.214Z,6.11
2018-02-14T21:18:39.898Z,6.11
2018-02-14T21:21:07.672Z,6.11
2018-02-14T21:23:35.427Z,6.11
2018-02-14T21:26:03.813Z,6.08
2018-02-14T21:28:31.585Z,6.08
2018-02-14T21:30:59.260Z,6.07
2018-02-14T21:33:26.807Z,6.04
2018-02-14T21:35:54.624Z,6.02
2018-02-14T21:38:22.196Z,5.98
2018-02-14T21:40:49.739Z,6.03
2018-02-14T21:43:17.320Z,6.01
2018-02-14T21:45:44.869Z,6.00
2018-02-14T21:48:12.414Z,5.98
2018-02-14T21:50:40.187Z,5.93
2018-02-14T21:53:07.726Z,5.99
2018-02-14T21:55:35.274Z,5.91
2018-02-14T21:58:02.799Z,5.99
2018-02-14T22:00:30.370Z,5.98
2018-02-14T22:02:57.924Z,5.99
2018-02-14T22:05:25.505Z,5.93
2018-02-14T22:11:23.382Z,5.94
2018-02-14T22:13:57.722Z,5.93
2018-02-14T22:16:25.541Z,5.98
2018-02-14T22:18:53.176Z,5.97
2018-02-14T22:21:20.788Z,5.95
2018-02-14T22:23:48.363Z,5.83
2018-02-14T22:26:15.959Z,5.87
2018-02-14T22:28:43.603Z,5.92
2018-02-14T22:31:11.279Z,5.92
2018-02-14T22:33:38.844Z,5.91
2018-02-14T22:36:06.459Z,5.86
2018-02-14T22:38:34.141Z,5.88
2018-02-14T22:41:01.727Z,5.88
2018-02-14T22:43:29.303Z,5.89
2018-02-14T22:45:56.837Z,5.90
2018-02-14T22:48:24.470Z,5.85
2018-02-14T22:50:52.060Z,5.88
2018-02-14T22:53:19.648Z,5.87
2018-02-14T22:55:47.218Z,5.83
2018-02-14T22:58:14.758Z,5.85
2018-02-14T23:00:42.387Z,5.87
2018-02-14T23:03:09.919Z,5.85
2018-02-14T23:05:37.437Z,5.80
2018-02-14T23:08:04.975Z,5.85
2018-02-14T23:10:32.630Z,5.83
2018-02-14T23:13:00.233Z,5.84
2018-02-14T23:15:28.134Z,5.80
2018-02-14T23:17:55.667Z,5.82
2018-02-14T23:20:24.701Z,5.81
2018-02-14T23:22:52.328Z,5.82
2018-02-14T23:25:19.865Z,5.78
2018-02-14T23:27:47.410Z,5.82
2018-02-14T23:30:14.975Z,5.81
2018-02-14T23:32:42.494Z,5.81
2018-02-14T23:35:10.031Z,5.81
2018-02-14T23:37:37.585Z,5.79
2018-02-14T23:40:05.122Z,5.78
2018-02-14T23:42:32.676Z,5.76
2018-02-14T23:45:00.235Z,5.73
2018-02-14T23:47:27.753Z,5.73
2018-02-14T23:49:55.296Z,5.73
2018-02-14T23:52:22.842Z,5.68
2018-02-14T23:54:50.382Z,5.69
2018-02-14T23:57:17.947Z,5.67
2018-02-14T23:59:45.479Z,5.64
